sensor_id;sensor_type;location;lat;lon;timestamp;temperature;humidity
10270;DHT22;70826;50.930;5.334;2024-02-23T00:00:16;20.50;76.80
10270;DHT22;70826;50.930;5.334;2024-02-23T00:02:43;20.50;76.80
10270;DHT22;70826;50.930;5.334;2024-02-23T00:05:09;20.50;76.80
10270;DHT22;70826;50.930;5.334;2024-02-23T00:07:34;20.50;76.80
10270;DHT22;70826;50.930;5.334;2024-02-23T00:10:00;20.50;76.80
10270;DHT22;70826;50.930;5.334;2024-02-23T00:12:25;20.50;76.80
10270;DHT22;70826;50.930;5.334;2024-02-23T00:14:53;20.50;76.80
10270;DHT22;70826;50.930;5.334;2024-02-23T00:17:19;20.50;76.70
10270;DHT22;70826;50.930;5.334;2024-02-23T00:19:45;20.50;76.80
10270;DHT22;70826;50.930;5.334;2024-02-23T00:22:12;20.50;76.80
10270;DHT22;70826;50.930;5.334;2024-02-23T00:24:38;20.50;76.80
10270;DHT22;70826;50.930;5.334;2024-02-23T00:27:06;20.50;76.80
10270;DHT22;70826;50.930;5.334;2024-02-23T00:29:31;20.50;76.70
10270;DHT22;70826;50.930;5.334;2024-02-23T00:31:57;20.50;76.70
10270;DHT22;70826;50.930;5.334;2024-02-23T00:34:23;20.50;76.70
10270;DHT22;70826;50.930;5.334;2024-02-23T00:36:49;20.50;76.70
10270;DHT22;70826;50.930;5.334;2024-02-23T00:39:18;20.50;76.70
10270;DHT22;70826;50.930;5.334;2024-02-23T00:41:43;20.50;76.70
10270;DHT22;70826;50.930;5.334;2024-02-23T00:44:09;20.50;76.70
10270;DHT22;70826;50.930;5.334;2024-02-23T00:46:34;20.50;76.80
10270;DHT22;70826;50.930;5.334;2024-02-23T00:49:00;20.50;76.70
10270;DHT22;70826;50.930;5.334;2024-02-23T00:51:26;20.50;76.70
10270;DHT22;70826;50.930;5.334;2024-02-23T00:53:52;20.50;76.70
10270;DHT22;70826;50.930;5.334;2024-02-23T00:56:18;20.50;76.70
10270;DHT22;70826;50.930;5.334;2024-02-23T00:58:43;20.50;76.70
10270;DHT22;70826;50.930;5.334;2024-02-23T01:01:09;20.50;76.70
10270;DHT22;70826;50.930;5.334;2024-02-23T01:03:35;20.50;76.80
10270;DHT22;70826;50.930;5.334;2024-02-23T01:06:00;20.50;76.70
10270;DHT22;70826;50.930;5.334;2024-02-23T01:08:26;20.50;76.70
10270;DHT22;70826;50.930;5.334;2024-02-23T01:10:51;20.50;76.70
10270;DHT22;70826;50.930;5.334;2024-02-23T01:13:17;20.50;76.70
10270;DHT22;70826;50.930;5.334;2024-02-23T01:15:43;20.50;77.30
10270;DHT22;70826;50.930;5.334;2024-02-23T01:18:10;20.50;76.70
10270;DHT22;70826;50.930;5.334;2024-02-23T01:20:36;20.50;76.70
10270;DHT22;70826;50.930;5.334;2024-02-23T01:23:02;20.50;76.70
10270;DHT22;70826;50.930;5.334;2024-02-23T01:25:27;20.50;76.70
10270;DHT22;70826;50.930;5.334;2024-02-23T01:27:53;20.50;76.70
10270;DHT22;70826;50.930;5.334;2024-02-23T01:30:18;20.50;76.70
10270;DHT22;70826;50.930;5.334;2024-02-23T01:32:46;20.50;76.70
10270;DHT22;70826;50.930;5.334;2024-02-23T01:35:12;20.50;76.70
10270;DHT22;70826;50.930;5.334;2024-02-23T01:37:38;20.50;76.70
10270;DHT22;70826;50.930;5.334;2024-02-23T01:40:06;20.50;76.70
10270;DHT22;70826;50.930;5.334;2024-02-23T01:42:32;20.50;76.70
10270;DHT22;70826;50.930;5.334;2024-02-23T01:44:58;20.50;76.80
10270;DHT22;70826;50.930;5.334;2024-02-23T01:47:25;20.50;76.70
10270;DHT22;70826;50.930;5.334;2024-02-23T01:49:53;20.50;76.70
10270;DHT22;70826;50.930;5.334;2024-02-23T01:52:19;20.50;76.70
10270;DHT22;70826;50.930;5.334;2024-02-23T01:54:45;20.50;76.70
10270;DHT22;70826;50.930;5.334;2024-02-23T01:57:11;20.50;76.70
10270;DHT22;70826;50.930;5.334;2024-02-23T01:59:38;20.50;76.70
10270;DHT22;70826;50.930;5.334;2024-02-23T02:02:06;20.50;76.70
10270;DHT22;70826;50.930;5.334;2024-02-23T02:04:32;20.50;76.70
10270;DHT22;70826;50.930;5.334;2024-02-23T02:06:59;20.50;76.70
10270;DHT22;70826;50.930;5.334;2024-02-23T02:09:25;20.50;76.70
10270;DHT22;70826;50.930;5.334;2024-02-23T02:11:51;20.50;76.70
10270;DHT22;70826;50.930;5.334;2024-02-23T02:14:19;20.50;76.70
10270;DHT22;70826;50.930;5.334;2024-02-23T02:16:45;20.50;76.70
10270;DHT22;70826;50.930;5.334;2024-02-23T02:19:11;20.50;76.70
10270;DHT22;70826;50.930;5.334;2024-02-23T02:21:37;20.50;76.70
10270;DHT22;70826;50.930;5.334;2024-02-23T02:24:04;20.50;76.70
10270;DHT22;70826;50.930;5.334;2024-02-23T02:26:32;20.50;76.70
10270;DHT22;70826;50.930;5.334;2024-02-23T02:28:58;20.50;76.70
10270;DHT22;70826;50.930;5.334;2024-02-23T02:31:23;20.50;76.70
10270;DHT22;70826;50.930;5.334;2024-02-23T02:33:49;20.50;76.70
10270;DHT22;70826;50.930;5.334;2024-02-23T02:36:17;20.50;76.70
10270;DHT22;70826;50.930;5.334;2024-02-23T02:38:43;20.50;76.70
10270;DHT22;70826;50.930;5.334;2024-02-23T02:41:09;20.50;76.70
10270;DHT22;70826;50.930;5.334;2024-02-23T02:43:34;20.50;77.00
10270;DHT22;70826;50.930;5.334;2024-02-23T02:46:00;20.50;76.70
10270;DHT22;70826;50.930;5.334;2024-02-23T02:48:25;20.50;76.70
10270;DHT22;70826;50.930;5.334;2024-02-23T02:50:51;20.50;76.70
10270;DHT22;70826;50.930;5.334;2024-02-23T02:53:17;20.50;76.70
10270;DHT22;70826;50.930;5.334;2024-02-23T02:55:43;20.50;76.70
10270;DHT22;70826;50.930;5.334;2024-02-23T02:58:11;20.50;76.70
10270;DHT22;70826;50.930;5.334;2024-02-23T03:00:36;20.50;76.70
10270;DHT22;70826;50.930;5.334;2024-02-23T03:03:02;20.50;76.70
10270;DHT22;70826;50.930;5.334;2024-02-23T03:05:28;20.50;76.70
10270;DHT22;70826;50.930;5.334;2024-02-23T03:07:53;20.50;76.70
10270;DHT22;70826;50.930;5.334;2024-02-23T03:10:19;20.50;76.70
10270;DHT22;70826;50.930;5.334;2024-02-23T03:12:45;20.40;76.70
10270;DHT22;70826;50.930;5.334;2024-02-23T03:15:10;20.50;76.70
10270;DHT22;70826;50.930;5.334;2024-02-23T03:17:36;20.40;76.70
10270;DHT22;70826;50.930;5.334;2024-02-23T03:20:04;20.40;76.70
10270;DHT22;70826;50.930;5.334;2024-02-23T03:22:31;20.40;76.70
10270;DHT22;70826;50.930;5.334;2024-02-23T03:24:57;20.50;76.70
10270;DHT22;70826;50.930;5.334;2024-02-23T03:27:28;20.40;76.70
10270;DHT22;70826;50.930;5.334;2024-02-23T03:29:54;20.40;76.70
10270;DHT22;70826;50.930;5.334;2024-02-23T03:32:20;20.40;76.60
10270;DHT22;70826;50.930;5.334;2024-02-23T03:34:45;20.40;76.60
10270;DHT22;70826;50.930;5.334;2024-02-23T03:37:11;20.40;76.60
10270;DHT22;70826;50.930;5.334;2024-02-23T03:39:37;20.50;76.70
10270;DHT22;70826;50.930;5.334;2024-02-23T03:42:03;20.50;76.70
10270;DHT22;70826;50.930;5.334;2024-02-23T03:44:29;20.50;76.70
10270;DHT22;70826;50.930;5.334;2024-02-23T03:46:55;20.50;76.70
10270;DHT22;70826;50.930;5.334;2024-02-23T03:49:20;20.40;76.60
10270;DHT22;70826;50.930;5.334;2024-02-23T03:51:47;20.40;76.60
10270;DHT22;70826;50.930;5.334;2024-02-23T03:54:13;20.50;76.70
10270;DHT22;70826;50.930;5.334;2024-02-23T03:56:40;20.40;76.60
10270;DHT22;70826;50.930;5.334;2024-02-23T03:59:06;20.40;76.60
10270;DHT22;70826;50.930;5.334;2024-02-23T04:01:35;20.40;76.70
10270;DHT22;70826;50.930;5.334;2024-02-23T04:04:01;20.40;76.70
10270;DHT22;70826;50.930;5.334;2024-02-23T04:06:27;20.40;76.70
10270;DHT22;70826;50.930;5.334;2024-02-23T04:08:54;20.40;76.70
10270;DHT22;70826;50.930;5.334;2024-02-23T04:11:20;20.40;76.70
10270;DHT22;70826;50.930;5.334;2024-02-23T04:13:46;20.40;76.70
10270;DHT22;70826;50.930;5.334;2024-02-23T04:16:11;20.40;76.70
10270;DHT22;70826;50.930;5.334;2024-02-23T04:18:37;20.40;76.70
10270;DHT22;70826;50.930;5.334;2024-02-23T04:21:03;20.40;76.70
10270;DHT22;70826;50.930;5.334;2024-02-23T04:23:31;20.40;76.70
10270;DHT22;70826;50.930;5.334;2024-02-23T04:25:56;20.40;76.70
10270;DHT22;70826;50.930;5.334;2024-02-23T04:28:22;20.40;76.60
10270;DHT22;70826;50.930;5.334;2024-02-23T04:30:48;20.50;76.70
10270;DHT22;70826;50.930;5.334;2024-02-23T04:33:14;20.40;76.70
10270;DHT22;70826;50.930;5.334;2024-02-23T04:35:40;20.40;76.60
10270;DHT22;70826;50.930;5.334;2024-02-23T04:38:05;20.40;76.60
10270;DHT22;70826;50.930;5.334;2024-02-23T04:40:31;20.50;76.70
10270;DHT22;70826;50.930;5.334;2024-02-23T04:42:57;20.40;76.60
10270;DHT22;70826;50.930;5.334;2024-02-23T04:45:22;20.50;76.70
10270;DHT22;70826;50.930;5.334;2024-02-23T04:47:50;20.50;76.70
10270;DHT22;70826;50.930;5.334;2024-02-23T04:50:15;20.40;76.60
10270;DHT22;70826;50.930;5.334;2024-02-23T04:52:41;20.50;76.70
10270;DHT22;70826;50.930;5.334;2024-02-23T04:55:07;20.40;76.60
10270;DHT22;70826;50.930;5.334;2024-02-23T04:57:33;20.50;76.70
10270;DHT22;70826;50.930;5.334;2024-02-23T04:59:58;20.50;76.70
10270;DHT22;70826;50.930;5.334;2024-02-23T05:02:24;20.50;76.70
10270;DHT22;70826;50.930;5.334;2024-02-23T05:04:50;20.40;76.60
10270;DHT22;70826;50.930;5.334;2024-02-23T05:07:15;20.40;76.60
10270;DHT22;70826;50.930;5.334;2024-02-23T05:09:41;20.40;76.60
10270;DHT22;70826;50.930;5.334;2024-02-23T05:12:08;20.40;76.60
10270;DHT22;70826;50.930;5.334;2024-02-23T05:14:36;20.40;76.60
10270;DHT22;70826;50.930;5.334;2024-02-23T05:17:01;20.40;76.60
10270;DHT22;70826;50.930;5.334;2024-02-23T05:19:28;20.40;76.60
10270;DHT22;70826;50.930;5.334;2024-02-23T05:21:54;20.40;76.60
10270;DHT22;70826;50.930;5.334;2024-02-23T05:24:20;20.40;76.60
10270;DHT22;70826;50.930;5.334;2024-02-23T05:26:45;20.40;76.70
10270;DHT22;70826;50.930;5.334;2024-02-23T05:29:11;20.40;76.70
10270;DHT22;70826;50.930;5.334;2024-02-23T05:31:52;20.40;76.60
10270;DHT22;70826;50.930;5.334;2024-02-23T05:34:17;20.40;76.70
10270;DHT22;70826;50.930;5.334;2024-02-23T05:36:46;20.40;76.60
10270;DHT22;70826;50.930;5.334;2024-02-23T05:39:13;20.40;76.60
10270;DHT22;70826;50.930;5.334;2024-02-23T05:41:41;20.40;76.70
10270;DHT22;70826;50.930;5.334;2024-02-23T05:44:09;20.40;76.60
10270;DHT22;70826;50.930;5.334;2024-02-23T05:46:35;20.40;76.60
10270;DHT22;70826;50.930;5.334;2024-02-23T05:49:02;20.40;76.70
10270;DHT22;70826;50.930;5.334;2024-02-23T05:51:29;20.40;77.20
10270;DHT22;70826;50.930;5.334;2024-02-23T05:53:56;20.40;76.60
10270;DHT22;70826;50.930;5.334;2024-02-23T05:56:21;20.40;76.60
10270;DHT22;70826;50.930;5.334;2024-02-23T05:58:49;20.40;76.60
10270;DHT22;70826;50.930;5.334;2024-02-23T06:01:15;20.40;76.60
10270;DHT22;70826;50.930;5.334;2024-02-23T06:03:40;20.40;76.60
10270;DHT22;70826;50.930;5.334;2024-02-23T06:06:09;20.40;76.60
10270;DHT22;70826;50.930;5.334;2024-02-23T06:08:35;20.40;76.60
10270;DHT22;70826;50.930;5.334;2024-02-23T06:11:02;20.40;76.60
10270;DHT22;70826;50.930;5.334;2024-02-23T06:13:32;20.40;76.60
10270;DHT22;70826;50.930;5.334;2024-02-23T06:15:57;20.40;76.60
10270;DHT22;70826;50.930;5.334;2024-02-23T06:18:23;20.40;76.60
10270;DHT22;70826;50.930;5.334;2024-02-23T06:20:49;20.40;76.60
10270;DHT22;70826;50.930;5.334;2024-02-23T06:23:22;20.40;76.60
10270;DHT22;70826;50.930;5.334;2024-02-23T06:25:50;20.40;76.60
10270;DHT22;70826;50.930;5.334;2024-02-23T06:28:20;20.40;76.60
10270;DHT22;70826;50.930;5.334;2024-02-23T06:30:45;20.40;76.60
10270;DHT22;70826;50.930;5.334;2024-02-23T06:33:13;20.40;76.60
10270;DHT22;70826;50.930;5.334;2024-02-23T06:35:42;20.40;76.60
10270;DHT22;70826;50.930;5.334;2024-02-23T06:38:12;20.40;76.60
10270;DHT22;70826;50.930;5.334;2024-02-23T06:40:42;20.50;76.60
10270;DHT22;70826;50.930;5.334;2024-02-23T06:43:12;20.40;76.50
10270;DHT22;70826;50.930;5.334;2024-02-23T06:45:41;20.40;76.50
10270;DHT22;70826;50.930;5.334;2024-02-23T06:48:13;20.40;76.50
10270;DHT22;70826;50.930;5.334;2024-02-23T06:50:43;20.40;76.60
10270;DHT22;70826;50.930;5.334;2024-02-23T06:53:12;20.40;76.50
10270;DHT22;70826;50.930;5.334;2024-02-23T06:55:40;20.40;76.50
10270;DHT22;70826;50.930;5.334;2024-02-23T06:58:10;20.40;76.50
10270;DHT22;70826;50.930;5.334;2024-02-23T07:00:40;20.40;76.50
10270;DHT22;70826;50.930;5.334;2024-02-23T07:03:08;20.40;76.50
10270;DHT22;70826;50.930;5.334;2024-02-23T07:05:36;20.40;76.50
10270;DHT22;70826;50.930;5.334;2024-02-23T07:08:04;20.40;76.50
10270;DHT22;70826;50.930;5.334;2024-02-23T07:10:38;20.50;76.60
10270;DHT22;70826;50.930;5.334;2024-02-23T07:13:04;20.40;76.50
10270;DHT22;70826;50.930;5.334;2024-02-23T07:15:32;20.40;76.50
10270;DHT22;70826;50.930;5.334;2024-02-23T07:18:01;20.40;76.50
10270;DHT22;70826;50.930;5.334;2024-02-23T07:20:26;20.40;76.50
10270;DHT22;70826;50.930;5.334;2024-02-23T07:22:56;20.40;76.50
10270;DHT22;70826;50.930;5.334;2024-02-23T07:25:26;20.40;76.50
10270;DHT22;70826;50.930;5.334;2024-02-23T07:27:55;20.40;76.60
10270;DHT22;70826;50.930;5.334;2024-02-23T07:30:21;20.40;76.60
10270;DHT22;70826;50.930;5.334;2024-02-23T07:32:49;20.40;76.50
10270;DHT22;70826;50.930;5.334;2024-02-23T07:35:14;20.40;76.50
10270;DHT22;70826;50.930;5.334;2024-02-23T07:37:47;20.40;76.50
10270;DHT22;70826;50.930;5.334;2024-02-23T07:40:15;20.40;76.50
10270;DHT22;70826;50.930;5.334;2024-02-23T07:42:45;20.40;76.50
10270;DHT22;70826;50.930;5.334;2024-02-23T07:45:13;20.40;76.50
10270;DHT22;70826;50.930;5.334;2024-02-23T07:47:42;20.40;76.50
10270;DHT22;70826;50.930;5.334;2024-02-23T07:50:10;20.40;76.50
10270;DHT22;70826;50.930;5.334;2024-02-23T07:52:36;20.40;76.50
10270;DHT22;70826;50.930;5.334;2024-02-23T07:55:04;20.40;76.50
10270;DHT22;70826;50.930;5.334;2024-02-23T07:57:34;20.40;76.50
10270;DHT22;70826;50.930;5.334;2024-02-23T08:00:05;20.40;76.50
10270;DHT22;70826;50.930;5.334;2024-02-23T08:02:35;20.40;76.50
10270;DHT22;70826;50.930;5.334;2024-02-23T08:05:01;20.40;76.50
10270;DHT22;70826;50.930;5.334;2024-02-23T08:07:30;20.40;76.50
10270;DHT22;70826;50.930;5.334;2024-02-23T08:09:58;20.40;76.50
10270;DHT22;70826;50.930;5.334;2024-02-23T08:12:24;20.40;76.50
10270;DHT22;70826;50.930;5.334;2024-02-23T08:14:49;20.40;76.50
10270;DHT22;70826;50.930;5.334;2024-02-23T08:17:18;20.40;76.50
10270;DHT22;70826;50.930;5.334;2024-02-23T08:19:47;20.30;75.80
10270;DHT22;70826;50.930;5.334;2024-02-23T08:22:14;20.40;75.10
10270;DHT22;70826;50.930;5.334;2024-02-23T08:24:42;20.40;74.70
10270;DHT22;70826;50.930;5.334;2024-02-23T08:27:10;20.40;74.60
10270;DHT22;70826;50.930;5.334;2024-02-23T08:29:39;20.40;74.50
10270;DHT22;70826;50.930;5.334;2024-02-23T08:32:11;20.40;74.50
10270;DHT22;70826;50.930;5.334;2024-02-23T08:34:38;20.50;74.60
10270;DHT22;70826;50.930;5.334;2024-02-23T08:37:04;20.50;74.40
10270;DHT22;70826;50.930;5.334;2024-02-23T08:39:34;20.50;74.10
10270;DHT22;70826;50.930;5.334;2024-02-23T08:42:04;20.40;74.20
10270;DHT22;70826;50.930;5.334;2024-02-23T08:44:37;20.40;74.40
10270;DHT22;70826;50.930;5.334;2024-02-23T08:47:08;20.40;74.50
10270;DHT22;70826;50.930;5.334;2024-02-23T08:49:36;20.50;74.60
10270;DHT22;70826;50.930;5.334;2024-02-23T08:52:04;20.60;74.70
10270;DHT22;70826;50.930;5.334;2024-02-23T08:54:30;20.60;74.50
10270;DHT22;70826;50.930;5.334;2024-02-23T08:56:56;20.70;74.50
10270;DHT22;70826;50.930;5.334;2024-02-23T08:59:21;20.70;74.50
10270;DHT22;70826;50.930;5.334;2024-02-23T09:01:49;20.70;74.50
10270;DHT22;70826;50.930;5.334;2024-02-23T09:04:17;20.70;74.60
10270;DHT22;70826;50.930;5.334;2024-02-23T09:06:43;20.60;74.60
10270;DHT22;70826;50.930;5.334;2024-02-23T09:09:08;20.60;74.60
10270;DHT22;70826;50.930;5.334;2024-02-23T09:11:36;20.60;74.70
10270;DHT22;70826;50.930;5.334;2024-02-23T09:14:03;20.60;74.70
10270;DHT22;70826;50.930;5.334;2024-02-23T09:16:31;20.60;74.80
10270;DHT22;70826;50.930;5.334;2024-02-23T09:18:56;20.60;74.80
10270;DHT22;70826;50.930;5.334;2024-02-23T09:21:22;20.60;74.90
10270;DHT22;70826;50.930;5.334;2024-02-23T09:23:48;20.60;74.90
10270;DHT22;70826;50.930;5.334;2024-02-23T09:26:16;20.60;74.90
10270;DHT22;70826;50.930;5.334;2024-02-23T09:28:44;20.60;75.10
10270;DHT22;70826;50.930;5.334;2024-02-23T09:31:17;20.50;75.40
10270;DHT22;70826;50.930;5.334;2024-02-23T09:33:47;20.40;76.50
10270;DHT22;70826;50.930;5.334;2024-02-23T09:36:16;20.40;76.20
10270;DHT22;70826;50.930;5.334;2024-02-23T09:38:47;20.40;76.50
10270;DHT22;70826;50.930;5.334;2024-02-23T09:41:24;20.30;76.70
10270;DHT22;70826;50.930;5.334;2024-02-23T09:43:54;20.30;76.90
10270;DHT22;70826;50.930;5.334;2024-02-23T09:46:22;20.40;77.10
10270;DHT22;70826;50.930;5.334;2024-02-23T09:48:50;20.40;77.20
10270;DHT22;70826;50.930;5.334;2024-02-23T09:51:19;20.40;77.30
10270;DHT22;70826;50.930;5.334;2024-02-23T09:53:53;20.40;77.40
10270;DHT22;70826;50.930;5.334;2024-02-23T09:56:25;20.40;77.50
10270;DHT22;70826;50.930;5.334;2024-02-23T09:59:00;20.50;77.60
10270;DHT22;70826;50.930;5.334;2024-02-23T10:01:31;20.50;77.70
10270;DHT22;70826;50.930;5.334;2024-02-23T10:04:01;20.50;77.70
10270;DHT22;70826;50.930;5.334;2024-02-23T10:06:32;20.60;77.80
10270;DHT22;70826;50.930;5.334;2024-02-23T10:08:58;20.60;77.80
10270;DHT22;70826;50.930;5.334;2024-02-23T10:11:24;20.60;77.80
10270;DHT22;70826;50.930;5.334;2024-02-23T10:13:54;20.70;77.70
10270;DHT22;70826;50.930;5.334;2024-02-23T10:16:21;20.70;77.80
10270;DHT22;70826;50.930;5.334;2024-02-23T10:18:50;20.70;77.80
10270;DHT22;70826;50.930;5.334;2024-02-23T10:21:16;20.70;77.80
10270;DHT22;70826;50.930;5.334;2024-02-23T10:23:43;20.70;77.80
10270;DHT22;70826;50.930;5.334;2024-02-23T10:26:09;20.80;77.90
10270;DHT22;70826;50.930;5.334;2024-02-23T10:28:37;20.80;77.90
10270;DHT22;70826;50.930;5.334;2024-02-23T10:31:09;20.80;77.90
10270;DHT22;70826;50.930;5.334;2024-02-23T10:33:45;20.90;77.90
10270;DHT22;70826;50.930;5.334;2024-02-23T10:36:18;20.90;77.60
10270;DHT22;70826;50.930;5.334;2024-02-23T10:38:48;21.10;77.30
10270;DHT22;70826;50.930;5.334;2024-02-23T10:41:18;21.20;77.00
10270;DHT22;70826;50.930;5.334;2024-02-23T10:43:48;21.20;76.80
10270;DHT22;70826;50.930;5.334;2024-02-23T10:46:14;21.30;76.60
10270;DHT22;70826;50.930;5.334;2024-02-23T10:48:44;21.40;76.40
10270;DHT22;70826;50.930;5.334;2024-02-23T10:51:14;21.40;76.20
10270;DHT22;70826;50.930;5.334;2024-02-23T10:53:40;21.40;76.00
10270;DHT22;70826;50.930;5.334;2024-02-23T10:56:09;21.40;76.10
10270;DHT22;70826;50.930;5.334;2024-02-23T10:58:40;21.40;76.10
10270;DHT22;70826;50.930;5.334;2024-02-23T11:01:07;21.30;76.20
10270;DHT22;70826;50.930;5.334;2024-02-23T11:03:38;21.30;76.30
10270;DHT22;70826;50.930;5.334;2024-02-23T11:06:07;21.30;76.50
10270;DHT22;70826;50.930;5.334;2024-02-23T11:08:35;21.30;76.50
10270;DHT22;70826;50.930;5.334;2024-02-23T11:11:12;21.30;76.50
10270;DHT22;70826;50.930;5.334;2024-02-23T11:13:40;21.30;76.60
10270;DHT22;70826;50.930;5.334;2024-02-23T11:16:07;21.20;76.60
10270;DHT22;70826;50.930;5.334;2024-02-23T11:18:35;21.30;76.60
10270;DHT22;70826;50.930;5.334;2024-02-23T11:21:02;21.30;76.60
10270;DHT22;70826;50.930;5.334;2024-02-23T11:23:48;21.30;76.60
10270;DHT22;70826;50.930;5.334;2024-02-23T11:26:17;21.40;76.60
10270;DHT22;70826;50.930;5.334;2024-02-23T11:28:50;21.40;76.50
10270;DHT22;70826;50.930;5.334;2024-02-23T11:31:22;21.50;76.50
10270;DHT22;70826;50.930;5.334;2024-02-23T11:33:54;21.60;75.80
10270;DHT22;70826;50.930;5.334;2024-02-23T11:36:31;21.60;75.30
10270;DHT22;70826;50.930;5.334;2024-02-23T11:38:58;21.70;75.00
10270;DHT22;70826;50.930;5.334;2024-02-23T11:41:25;21.70;74.80
10270;DHT22;70826;50.930;5.334;2024-02-23T11:43:52;21.70;74.70
10270;DHT22;70826;50.930;5.334;2024-02-23T11:46:19;21.80;74.60
10270;DHT22;70826;50.930;5.334;2024-02-23T11:48:45;21.80;74.40
10270;DHT22;70826;50.930;5.334;2024-02-23T11:51:22;21.80;74.40
10270;DHT22;70826;50.930;5.334;2024-02-23T11:53:49;21.80;74.30
10270;DHT22;70826;50.930;5.334;2024-02-23T11:56:15;21.80;74.20
10270;DHT22;70826;50.930;5.334;2024-02-23T11:58:41;21.80;74.20
10270;DHT22;70826;50.930;5.334;2024-02-23T12:01:07;21.70;74.10
10270;DHT22;70826;50.930;5.334;2024-02-23T12:03:33;21.70;74.10
10270;DHT22;70826;50.930;5.334;2024-02-23T12:06:02;21.70;74.00
10270;DHT22;70826;50.930;5.334;2024-02-23T12:08:30;21.70;74.10
10270;DHT22;70826;50.930;5.334;2024-02-23T12:11:03;21.70;74.10
10270;DHT22;70826;50.930;5.334;2024-02-23T12:13:29;21.60;74.00
10270;DHT22;70826;50.930;5.334;2024-02-23T12:15:55;21.60;74.00
10270;DHT22;70826;50.930;5.334;2024-02-23T12:18:24;21.60;74.10
10270;DHT22;70826;50.930;5.334;2024-02-23T12:20:59;21.60;74.10
10270;DHT22;70826;50.930;5.334;2024-02-23T12:23:26;21.50;74.10
10270;DHT22;70826;50.930;5.334;2024-02-23T12:25:56;21.50;74.10
10270;DHT22;70826;50.930;5.334;2024-02-23T12:28:23;21.50;74.20
10270;DHT22;70826;50.930;5.334;2024-02-23T12:31:02;21.50;74.20
10270;DHT22;70826;50.930;5.334;2024-02-23T12:33:29;21.40;74.30
10270;DHT22;70826;50.930;5.334;2024-02-23T12:35:55;21.40;74.20
10270;DHT22;70826;50.930;5.334;2024-02-23T12:38:24;21.40;74.30
10270;DHT22;70826;50.930;5.334;2024-02-23T12:40:50;21.40;74.30
10270;DHT22;70826;50.930;5.334;2024-02-23T12:43:17;21.30;74.30
10270;DHT22;70826;50.930;5.334;2024-02-23T12:45:43;21.30;74.30
10270;DHT22;70826;50.930;5.334;2024-02-23T12:48:17;21.30;74.40
10270;DHT22;70826;50.930;5.334;2024-02-23T12:50:46;21.30;74.40
10270;DHT22;70826;50.930;5.334;2024-02-23T12:58:29;21.20;74.50
10270;DHT22;70826;50.930;5.334;2024-02-23T13:00:55;21.20;74.60
10270;DHT22;70826;50.930;5.334;2024-02-23T13:03:24;21.20;74.60
10270;DHT22;70826;50.930;5.334;2024-02-23T13:05:56;21.20;74.60
10270;DHT22;70826;50.930;5.334;2024-02-23T13:08:22;21.20;74.60
10270;DHT22;70826;50.930;5.334;2024-02-23T13:10:52;21.10;74.60
10270;DHT22;70826;50.930;5.334;2024-02-23T13:13:19;21.10;74.60
10270;DHT22;70826;50.930;5.334;2024-02-23T13:15:49;21.10;74.60
10270;DHT22;70826;50.930;5.334;2024-02-23T13:18:15;21.10;74.70
10270;DHT22;70826;50.930;5.334;2024-02-23T13:20:41;21.10;74.70
10270;DHT22;70826;50.930;5.334;2024-02-23T13:23:12;21.10;74.80
10270;DHT22;70826;50.930;5.334;2024-02-23T13:25:39;21.10;74.80
10270;DHT22;70826;50.930;5.334;2024-02-23T13:28:05;21.10;74.80
10270;DHT22;70826;50.930;5.334;2024-02-23T13:30:35;21.00;74.80
10270;DHT22;70826;50.930;5.334;2024-02-23T13:33:01;21.00;74.90
10270;DHT22;70826;50.930;5.334;2024-02-23T13:35:27;21.00;74.90
10270;DHT22;70826;50.930;5.334;2024-02-23T13:37:52;21.00;75.00
10270;DHT22;70826;50.930;5.334;2024-02-23T13:40:21;21.00;75.00
10270;DHT22;70826;50.930;5.334;2024-02-23T13:42:47;21.00;74.90
10270;DHT22;70826;50.930;5.334;2024-02-23T13:45:16;21.00;75.10
10270;DHT22;70826;50.930;5.334;2024-02-23T13:47:43;21.00;75.40
10270;DHT22;70826;50.930;5.334;2024-02-23T13:50:13;21.00;75.40
10270;DHT22;70826;50.930;5.334;2024-02-23T13:52:44;21.00;75.60
10270;DHT22;70826;50.930;5.334;2024-02-23T13:55:12;21.00;75.80
10270;DHT22;70826;50.930;5.334;2024-02-23T13:57:40;21.10;75.90
10270;DHT22;70826;50.930;5.334;2024-02-23T14:00:08;21.10;76.00
10270;DHT22;70826;50.930;5.334;2024-02-23T14:02:38;21.20;76.20
10270;DHT22;70826;50.930;5.334;2024-02-23T14:05:08;21.20;76.20
10270;DHT22;70826;50.930;5.334;2024-02-23T14:07:35;21.30;76.30
10270;DHT22;70826;50.930;5.334;2024-02-23T14:10:04;21.40;76.40
10270;DHT22;70826;50.930;5.334;2024-02-23T14:12:30;21.40;76.40
10270;DHT22;70826;50.930;5.334;2024-02-23T14:14:58;21.50;76.40
10270;DHT22;70826;50.930;5.334;2024-02-23T14:17:26;21.60;76.50
10270;DHT22;70826;50.930;5.334;2024-02-23T14:19:51;21.70;76.50
10270;DHT22;70826;50.930;5.334;2024-02-23T14:22:17;21.70;76.50
10270;DHT22;70826;50.930;5.334;2024-02-23T14:24:45;21.80;76.50
10270;DHT22;70826;50.930;5.334;2024-02-23T14:27:13;21.90;76.50
10270;DHT22;70826;50.930;5.334;2024-02-23T14:29:39;21.90;76.50
10270;DHT22;70826;50.930;5.334;2024-02-23T14:32:04;22.00;76.40
10270;DHT22;70826;50.930;5.334;2024-02-23T14:34:30;22.00;76.40
10270;DHT22;70826;50.930;5.334;2024-02-23T14:37:01;22.10;76.40
10270;DHT22;70826;50.930;5.334;2024-02-23T14:39:29;22.10;77.00
10270;DHT22;70826;50.930;5.334;2024-02-23T14:41:54;22.20;76.40
10270;DHT22;70826;50.930;5.334;2024-02-23T14:44:20;22.30;76.40
10270;DHT22;70826;50.930;5.334;2024-02-23T14:46:48;22.30;76.30
10270;DHT22;70826;50.930;5.334;2024-02-23T14:49:16;22.40;76.20
10270;DHT22;70826;50.930;5.334;2024-02-23T14:51:44;22.50;76.30
10270;DHT22;70826;50.930;5.334;2024-02-23T14:54:12;22.60;76.30
10270;DHT22;70826;50.930;5.334;2024-02-23T14:56:40;22.60;76.30
10270;DHT22;70826;50.930;5.334;2024-02-23T14:59:13;22.60;76.30
10270;DHT22;70826;50.930;5.334;2024-02-23T15:01:41;22.60;76.90
10270;DHT22;70826;50.930;5.334;2024-02-23T15:04:07;22.60;76.30
10270;DHT22;70826;50.930;5.334;2024-02-23T15:06:37;22.50;76.40
10270;DHT22;70826;50.930;5.334;2024-02-23T15:09:08;22.50;76.50
10270;DHT22;70826;50.930;5.334;2024-02-23T15:11:33;22.50;76.70
10270;DHT22;70826;50.930;5.334;2024-02-23T15:14:05;22.50;76.60
10270;DHT22;70826;50.930;5.334;2024-02-23T15:16:31;22.40;76.60
10270;DHT22;70826;50.930;5.334;2024-02-23T15:18:57;22.40;76.70
10270;DHT22;70826;50.930;5.334;2024-02-23T15:21:23;22.40;76.80
10270;DHT22;70826;50.930;5.334;2024-02-23T15:23:49;22.40;76.80
10270;DHT22;70826;50.930;5.334;2024-02-23T15:26:14;22.40;76.80
10270;DHT22;70826;50.930;5.334;2024-02-23T15:28:40;22.40;76.60
10270;DHT22;70826;50.930;5.334;2024-02-23T15:31:06;22.50;76.30
10270;DHT22;70826;50.930;5.334;2024-02-23T15:33:34;22.60;76.00
10270;DHT22;70826;50.930;5.334;2024-02-23T15:36:01;22.60;75.70